sensor_id;sensor_type;location;lat;lon;timestamp;P1;durP1;ratioP1;P2;durP2;ratioP2
16727;SDS011;8482;54.396;18.590;2023-05-10T00:00:52;4.95;;;2.67;;
16727;SDS011;8482;54.396;18.590;2023-05-10T00:03:18;5.65;;;2.92;;
16727;SDS011;8482;54.396;18.590;2023-05-10T00:05:44;5.95;;;2.80;;
16727;SDS011;8482;54.396;18.590;2023-05-10T00:08:09;6.70;;;3.22;;
16727;SDS011;8482;54.396;18.590;2023-05-10T00:10:35;4.63;;;2.72;;
16727;SDS011;8482;54.396;18.590;2023-05-10T00:13:02;5.40;;;2.78;;
16727;SDS011;8482;54.396;18.590;2023-05-10T00:15:28;6.90;;;3.10;;
16727;SDS011;8482;54.396;18.590;2023-05-10T00:17:55;7.35;;;2.63;;
16727;SDS011;8482;54.396;18.590;2023-05-10T00:20:22;5.45;;;3.03;;
16727;SDS011;8482;54.396;18.590;2023-05-10T00:22:47;6.28;;;2.50;;
16727;SDS011;8482;54.396;18.590;2023-05-10T00:25:13;5.25;;;3.00;;
16727;SDS011;8482;54.396;18.590;2023-05-10T00:27:39;7.30;;;3.03;;
16727;SDS011;8482;54.396;18.590;2023-05-10T00:30:05;6.45;;;3.20;;
16727;SDS011;8482;54.396;18.590;2023-05-10T00:32:32;6.28;;;3.28;;
16727;SDS011;8482;54.396;18.590;2023-05-10T00:34:58;6.97;;;3.70;;
16727;SDS011;8482;54.396;18.590;2023-05-10T00:37:24;5.97;;;2.97;;
16727;SDS011;8482;54.396;18.590;2023-05-10T00:39:49;6.47;;;2.78;;
16727;SDS011;8482;54.396;18.590;2023-05-10T00:42:15;6.40;;;3.10;;
16727;SDS011;8482;54.396;18.590;2023-05-10T00:44:41;6.40;;;2.80;;
16727;SDS011;8482;54.396;18.590;2023-05-10T00:47:07;4.78;;;2.90;;
16727;SDS011;8482;54.396;18.590;2023-05-10T00:49:34;7.15;;;3.53;;
16727;SDS011;8482;54.396;18.590;2023-05-10T00:52:00;6.28;;;3.10;;
16727;SDS011;8482;54.396;18.590;2023-05-10T00:54:28;5.32;;;3.03;;
16727;SDS011;8482;54.396;18.590;2023-05-10T00:56:54;7.20;;;2.85;;
16727;SDS011;8482;54.396;18.590;2023-05-10T00:59:21;4.80;;;2.65;;
16727;SDS011;8482;54.396;18.590;2023-05-10T01:01:48;8.32;;;3.65;;
16727;SDS011;8482;54.396;18.590;2023-05-10T01:04:14;5.97;;;2.80;;
16727;SDS011;8482;54.396;18.590;2023-05-10T01:06:41;7.07;;;3.35;;
16727;SDS011;8482;54.396;18.590;2023-05-10T01:09:07;7.95;;;3.72;;
16727;SDS011;8482;54.396;18.590;2023-05-10T01:11:37;6.07;;;3.30;;
16727;SDS011;8482;54.396;18.590;2023-05-10T01:14:04;5.82;;;3.58;;
16727;SDS011;8482;54.396;18.590;2023-05-10T01:16:32;7.13;;;3.13;;
16727;SDS011;8482;54.396;18.590;2023-05-10T01:19:11;7.68;;;3.47;;
16727;SDS011;8482;54.396;18.590;2023-05-10T01:24:56;5.25;;;2.85;;
16727;SDS011;8482;54.396;18.590;2023-05-10T01:34:06;5.63;;;3.03;;
16727;SDS011;8482;54.396;18.590;2023-05-10T01:36:51;6.35;;;3.17;;
16727;SDS011;8482;54.396;18.590;2023-05-10T01:47:12;7.20;;;3.15;;
16727;SDS011;8482;54.396;18.590;2023-05-10T01:49:54;6.85;;;3.58;;
16727;SDS011;8482;54.396;18.590;2023-05-10T01:52:29;8.55;;;3.22;;
16727;SDS011;8482;54.396;18.590;2023-05-10T01:55:00;5.22;;;2.90;;
16727;SDS011;8482;54.396;18.590;2023-05-10T01:57:32;5.80;;;3.63;;
16727;SDS011;8482;54.396;18.590;2023-05-10T02:00:07;5.57;;;2.85;;
16727;SDS011;8482;54.396;18.590;2023-05-10T02:02:37;7.00;;;2.97;;
16727;SDS011;8482;54.396;18.590;2023-05-10T02:05:07;6.25;;;3.00;;
16727;SDS011;8482;54.396;18.590;2023-05-10T02:07:36;7.95;;;2.95;;
16727;SDS011;8482;54.396;18.590;2023-05-10T02:10:04;6.68;;;3.28;;
16727;SDS011;8482;54.396;18.590;2023-05-10T02:12:36;6.43;;;2.95;;
16727;SDS011;8482;54.396;18.590;2023-05-10T02:15:08;6.63;;;3.50;;
16727;SDS011;8482;54.396;18.590;2023-05-10T02:17:37;4.78;;;3.05;;
16727;SDS011;8482;54.396;18.590;2023-05-10T02:20:07;6.40;;;3.10;;
16727;SDS011;8482;54.396;18.590;2023-05-10T02:22:35;6.95;;;3.00;;
16727;SDS011;8482;54.396;18.590;2023-05-10T02:25:04;5.57;;;3.38;;
16727;SDS011;8482;54.396;18.590;2023-05-10T02:27:34;6.50;;;3.22;;
16727;SDS011;8482;54.396;18.590;2023-05-10T02:30:02;6.78;;;3.33;;
16727;SDS011;8482;54.396;18.590;2023-05-10T02:32:30;5.93;;;3.03;;
16727;SDS011;8482;54.396;18.590;2023-05-10T02:34:57;6.35;;;3.70;;
16727;SDS011;8482;54.396;18.590;2023-05-10T02:37:27;7.65;;;3.10;;
16727;SDS011;8482;54.396;18.590;2023-05-10T02:39:55;6.53;;;3.40;;
16727;SDS011;8482;54.396;18.590;2023-05-10T02:42:23;6.80;;;3.35;;
16727;SDS011;8482;54.396;18.590;2023-05-10T02:44:53;5.85;;;3.20;;
16727;SDS011;8482;54.396;18.590;2023-05-10T02:47:25;6.60;;;3.40;;
16727;SDS011;8482;54.396;18.590;2023-05-10T02:49:53;5.50;;;2.90;;
16727;SDS011;8482;54.396;18.590;2023-05-10T02:52:21;6.88;;;3.25;;
16727;SDS011;8482;54.396;18.590;2023-05-10T02:54:58;7.20;;;3.75;;
16727;SDS011;8482;54.396;18.590;2023-05-10T02:57:28;7.63;;;3.75;;
16727;SDS011;8482;54.396;18.590;2023-05-10T02:59:59;7.93;;;3.88;;
16727;SDS011;8482;54.396;18.590;2023-05-10T03:02:26;8.13;;;3.58;;
16727;SDS011;8482;54.396;18.590;2023-05-10T03:04:53;7.10;;;3.95;;
16727;SDS011;8482;54.396;18.590;2023-05-10T03:07:18;8.07;;;3.85;;
16727;SDS011;8482;54.396;18.590;2023-05-10T03:09:46;7.47;;;3.80;;
16727;SDS011;8482;54.396;18.590;2023-05-10T03:12:28;9.45;;;4.20;;
16727;SDS011;8482;54.396;18.590;2023-05-10T03:18:28;9.30;;;3.88;;
16727;SDS011;8482;54.396;18.590;2023-05-10T03:21:02;8.15;;;4.30;;
16727;SDS011;8482;54.396;18.590;2023-05-10T03:26:29;6.50;;;3.50;;
16727;SDS011;8482;54.396;18.590;2023-05-10T03:28:56;7.32;;;3.40;;
16727;SDS011;8482;54.396;18.590;2023-05-10T03:31:24;6.18;;;3.50;;
16727;SDS011;8482;54.396;18.590;2023-05-10T03:33:51;9.13;;;3.50;;
16727;SDS011;8482;54.396;18.590;2023-05-10T03:36:18;6.75;;;3.65;;
16727;SDS011;8482;54.396;18.590;2023-05-10T03:38:44;7.07;;;3.30;;
16727;SDS011;8482;54.396;18.590;2023-05-10T03:41:10;7.90;;;3.55;;
16727;SDS011;8482;54.396;18.590;2023-05-10T03:43:36;7.05;;;3.88;;
16727;SDS011;8482;54.396;18.590;2023-05-10T03:46:02;7.00;;;3.38;;
16727;SDS011;8482;54.396;18.590;2023-05-10T03:48:29;5.78;;;3.20;;
16727;SDS011;8482;54.396;18.590;2023-05-10T03:50:57;8.23;;;3.83;;
16727;SDS011;8482;54.396;18.590;2023-05-10T03:53:23;7.88;;;3.45;;
16727;SDS011;8482;54.396;18.590;2023-05-10T03:55:49;5.63;;;3.53;;
16727;SDS011;8482;54.396;18.590;2023-05-10T03:58:15;7.05;;;3.67;;
16727;SDS011;8482;54.396;18.590;2023-05-10T04:00:41;6.68;;;3.20;;
16727;SDS011;8482;54.396;18.590;2023-05-10T04:03:10;6.10;;;2.95;;
16727;SDS011;8482;54.396;18.590;2023-05-10T04:05:38;6.57;;;3.45;;
16727;SDS011;8482;54.396;18.590;2023-05-10T04:08:05;7.20;;;3.05;;
16727;SDS011;8482;54.396;18.590;2023-05-10T04:10:31;7.43;;;3.63;;
16727;SDS011;8482;54.396;18.590;2023-05-10T04:12:57;6.28;;;3.28;;
16727;SDS011;8482;54.396;18.590;2023-05-10T04:15:23;6.18;;;3.22;;
16727;SDS011;8482;54.396;18.590;2023-05-10T04:17:49;6.25;;;3.30;;
16727;SDS011;8482;54.396;18.590;2023-05-10T04:20:16;5.53;;;2.70;;
16727;SDS011;8482;54.396;18.590;2023-05-10T04:22:42;5.28;;;2.70;;
16727;SDS011;8482;54.396;18.590;2023-05-10T04:25:08;5.88;;;3.05;;
16727;SDS011;8482;54.396;18.590;2023-05-10T04:27:34;6.35;;;3.40;;
16727;SDS011;8482;54.396;18.590;2023-05-10T04:30:00;7.47;;;3.65;;
16727;SDS011;8482;54.396;18.590;2023-05-10T04:32:27;6.05;;;3.20;;
16727;SDS011;8482;54.396;18.590;2023-05-10T04:34:53;5.80;;;2.90;;
16727;SDS011;8482;54.396;18.590;2023-05-10T04:37:18;6.68;;;3.03;;
16727;SDS011;8482;54.396;18.590;2023-05-10T04:39:46;5.93;;;2.85;;
16727;SDS011;8482;54.396;18.590;2023-05-10T04:42:12;5.85;;;2.97;;
16727;SDS011;8482;54.396;18.590;2023-05-10T04:44:39;7.28;;;3.60;;
16727;SDS011;8482;54.396;18.590;2023-05-10T04:47:05;5.35;;;2.65;;
16727;SDS011;8482;54.396;18.590;2023-05-10T04:49:31;5.07;;;2.90;;
16727;SDS011;8482;54.396;18.590;2023-05-10T04:51:57;5.50;;;2.83;;
16727;SDS011;8482;54.396;18.590;2023-05-10T04:54:23;5.38;;;2.83;;
16727;SDS011;8482;54.396;18.590;2023-05-10T04:56:49;5.72;;;2.80;;
16727;SDS011;8482;54.396;18.590;2023-05-10T04:59:15;5.65;;;2.80;;
16727;SDS011;8482;54.396;18.590;2023-05-10T05:01:41;5.47;;;3.13;;
16727;SDS011;8482;54.396;18.590;2023-05-10T05:04:07;6.43;;;3.40;;
16727;SDS011;8482;54.396;18.590;2023-05-10T05:06:33;5.65;;;2.72;;
16727;SDS011;8482;54.396;18.590;2023-05-10T05:08:59;5.43;;;2.97;;
16727;SDS011;8482;54.396;18.590;2023-05-10T05:11:24;5.47;;;2.80;;
16727;SDS011;8482;54.396;18.590;2023-05-10T05:13:51;4.72;;;2.70;;
16727;SDS011;8482;54.396;18.590;2023-05-10T05:16:16;4.78;;;2.35;;
16727;SDS011;8482;54.396;18.590;2023-05-10T05:18:42;5.88;;;3.00;;
16727;SDS011;8482;54.396;18.590;2023-05-10T05:21:14;5.70;;;2.80;;
16727;SDS011;8482;54.396;18.590;2023-05-10T05:23:42;6.22;;;3.00;;
16727;SDS011;8482;54.396;18.590;2023-05-10T05:26:08;5.03;;;2.30;;
16727;SDS011;8482;54.396;18.590;2023-05-10T05:28:34;5.35;;;2.97;;
16727;SDS011;8482;54.396;18.590;2023-05-10T05:31:02;5.22;;;2.75;;
16727;SDS011;8482;54.396;18.590;2023-05-10T05:33:30;5.05;;;2.60;;
16727;SDS011;8482;54.396;18.590;2023-05-10T05:35:56;6.38;;;2.95;;
16727;SDS011;8482;54.396;18.590;2023-05-10T05:38:22;7.53;;;3.17;;
16727;SDS011;8482;54.396;18.590;2023-05-10T05:40:48;5.13;;;2.78;;
16727;SDS011;8482;54.396;18.590;2023-05-10T05:43:14;6.25;;;2.85;;
16727;SDS011;8482;54.396;18.590;2023-05-10T05:45:40;4.95;;;2.75;;
16727;SDS011;8482;54.396;18.590;2023-05-10T05:48:06;5.40;;;2.85;;
16727;SDS011;8482;54.396;18.590;2023-05-10T05:50:32;5.50;;;2.80;;
16727;SDS011;8482;54.396;18.590;2023-05-10T05:52:57;5.50;;;2.88;;
16727;SDS011;8482;54.396;18.590;2023-05-10T05:55:23;5.20;;;2.90;;
16727;SDS011;8482;54.396;18.590;2023-05-10T05:57:50;5.68;;;3.00;;
16727;SDS011;8482;54.396;18.590;2023-05-10T06:00:16;5.40;;;3.15;;
16727;SDS011;8482;54.396;18.590;2023-05-10T06:02:43;6.45;;;3.22;;
16727;SDS011;8482;54.396;18.590;2023-05-10T06:05:08;5.80;;;3.25;;
16727;SDS011;8482;54.396;18.590;2023-05-10T06:07:34;5.90;;;2.97;;
16727;SDS011;8482;54.396;18.590;2023-05-10T06:10:00;6.15;;;2.85;;
16727;SDS011;8482;54.396;18.590;2023-05-10T06:12:26;6.30;;;2.90;;
16727;SDS011;8482;54.396;18.590;2023-05-10T06:14:52;5.65;;;3.10;;
16727;SDS011;8482;54.396;18.590;2023-05-10T06:17:17;4.63;;;2.85;;
16727;SDS011;8482;54.396;18.590;2023-05-10T06:19:43;6.90;;;3.35;;
16727;SDS011;8482;54.396;18.590;2023-05-10T06:22:09;5.35;;;2.65;;
16727;SDS011;8482;54.396;18.590;2023-05-10T06:24:35;4.85;;;2.70;;
16727;SDS011;8482;54.396;18.590;2023-05-10T06:27:01;5.75;;;2.55;;
16727;SDS011;8482;54.396;18.590;2023-05-10T06:29:26;4.45;;;2.53;;
16727;SDS011;8482;54.396;18.590;2023-05-10T06:31:52;3.92;;;2.10;;
16727;SDS011;8482;54.396;18.590;2023-05-10T06:34:19;5.05;;;2.85;;
16727;SDS011;8482;54.396;18.590;2023-05-10T06:36:45;4.68;;;2.53;;
16727;SDS011;8482;54.396;18.590;2023-05-10T06:39:10;6.57;;;2.95;;
16727;SDS011;8482;54.396;18.590;2023-05-10T06:41:36;6.50;;;2.65;;
16727;SDS011;8482;54.396;18.590;2023-05-10T06:44:02;4.20;;;2.05;;
16727;SDS011;8482;54.396;18.590;2023-05-10T06:46:29;4.50;;;2.53;;
16727;SDS011;8482;54.396;18.590;2023-05-10T06:48:54;5.25;;;2.95;;
16727;SDS011;8482;54.396;18.590;2023-05-10T06:51:20;7.10;;;3.17;;
16727;SDS011;8482;54.396;18.590;2023-05-10T06:53:46;7.28;;;2.95;;
16727;SDS011;8482;54.396;18.590;2023-05-10T06:56:12;5.65;;;2.75;;
16727;SDS011;8482;54.396;18.590;2023-05-10T06:58:38;4.85;;;2.60;;
16727;SDS011;8482;54.396;18.590;2023-05-10T07:01:04;5.07;;;2.55;;
16727;SDS011;8482;54.396;18.590;2023-05-10T07:03:31;5.95;;;2.30;;
16727;SDS011;8482;54.396;18.590;2023-05-10T07:06:01;5.53;;;2.40;;
16727;SDS011;8482;54.396;18.590;2023-05-10T07:08:28;5.90;;;2.88;;
16727;SDS011;8482;54.396;18.590;2023-05-10T07:11:02;5.50;;;2.60;;
16727;SDS011;8482;54.396;18.590;2023-05-10T07:13:30;4.32;;;2.42;;
16727;SDS011;8482;54.396;18.590;2023-05-10T07:15:57;4.47;;;2.28;;
16727;SDS011;8482;54.396;18.590;2023-05-10T07:18:24;5.00;;;2.10;;
16727;SDS011;8482;54.396;18.590;2023-05-10T07:20:50;3.88;;;2.00;;
16727;SDS011;8482;54.396;18.590;2023-05-10T07:23:16;3.85;;;1.90;;
16727;SDS011;8482;54.396;18.590;2023-05-10T07:25:49;4.88;;;2.50;;
16727;SDS011;8482;54.396;18.590;2023-05-10T07:28:19;5.22;;;2.63;;
16727;SDS011;8482;54.396;18.590;2023-05-10T07:30:45;4.05;;;1.90;;
16727;SDS011;8482;54.396;18.590;2023-05-10T07:33:12;4.00;;;2.10;;
16727;SDS011;8482;54.396;18.590;2023-05-10T07:35:39;3.92;;;1.92;;
16727;SDS011;8482;54.396;18.590;2023-05-10T07:38:05;3.65;;;2.03;;
16727;SDS011;8482;54.396;18.590;2023-05-10T07:40:31;3.53;;;1.75;;
16727;SDS011;8482;54.396;18.590;2023-05-10T07:42:57;5.43;;;2.03;;
16727;SDS011;8482;54.396;18.590;2023-05-10T07:45:23;3.85;;;2.00;;
16727;SDS011;8482;54.396;18.590;2023-05-10T07:47:49;3.05;;;1.88;;
16727;SDS011;8482;54.396;18.590;2023-05-10T07:50:15;4.38;;;2.05;;
16727;SDS011;8482;54.396;18.590;2023-05-10T07:52:41;5.05;;;2.13;;
16727;SDS011;8482;54.396;18.590;2023-05-10T07:55:07;3.15;;;2.00;;
16727;SDS011;8482;54.396;18.590;2023-05-10T07:57:34;3.40;;;1.92;;
16727;SDS011;8482;54.396;18.590;2023-05-10T08:00:00;5.00;;;2.10;;
16727;SDS011;8482;54.396;18.590;2023-05-10T08:02:26;5.00;;;2.20;;
16727;SDS011;8482;54.396;18.590;2023-05-10T08:04:52;4.35;;;2.13;;
16727;SDS011;8482;54.396;18.590;2023-05-10T08:07:17;4.03;;;1.70;;
16727;SDS011;8482;54.396;18.590;2023-05-10T08:09:43;3.55;;;1.80;;
16727;SDS011;8482;54.396;18.590;2023-05-10T08:12:09;3.58;;;1.70;;
16727;SDS011;8482;54.396;18.590;2023-05-10T08:14:35;4.40;;;2.00;;
16727;SDS011;8482;54.396;18.590;2023-05-10T08:17:04;4.25;;;2.20;;
16727;SDS011;8482;54.396;18.590;2023-05-10T08:19:30;3.83;;;1.85;;
16727;SDS011;8482;54.396;18.590;2023-05-10T08:21:56;4.07;;;2.20;;
16727;SDS011;8482;54.396;18.590;2023-05-10T08:24:22;5.40;;;2.25;;
16727;SDS011;8482;54.396;18.590;2023-05-10T08:26:48;3.30;;;1.80;;
16727;SDS011;8482;54.396;18.590;2023-05-10T08:29:14;3.05;;;1.85;;
16727;SDS011;8482;54.396;18.590;2023-05-10T08:31:40;5.22;;;2.28;;
16727;SDS011;8482;54.396;18.590;2023-05-10T08:34:06;5.93;;;2.72;;
16727;SDS011;8482;54.396;18.590;2023-05-10T08:36:32;5.75;;;2.00;;
16727;SDS011;8482;54.396;18.590;2023-05-10T08:38:58;5.90;;;2.13;;
16727;SDS011;8482;54.396;18.590;2023-05-10T08:41:24;6.03;;;2.60;;
16727;SDS011;8482;54.396;18.590;2023-05-10T08:43:53;6.03;;;2.20;;
16727;SDS011;8482;54.396;18.590;2023-05-10T08:46:20;6.25;;;2.25;;
16727;SDS011;8482;54.396;18.590;2023-05-10T08:48:49;4.40;;;2.00;;
16727;SDS011;8482;54.396;18.590;2023-05-10T08:51:20;4.15;;;1.85;;
16727;SDS011;8482;54.396;18.590;2023-05-10T08:53:53;3.25;;;1.67;;
16727;SDS011;8482;54.396;18.590;2023-05-10T08:56:19;5.55;;;2.17;;
16727;SDS011;8482;54.396;18.590;2023-05-10T08:58:45;5.38;;;2.30;;
16727;SDS011;8482;54.396;18.590;2023-05-10T09:01:12;4.90;;;1.95;;
16727;SDS011;8482;54.396;18.590;2023-05-10T09:03:41;5.28;;;2.20;;
16727;SDS011;8482;54.396;18.590;2023-05-10T09:06:08;5.18;;;2.00;;
16727;SDS011;8482;54.396;18.590;2023-05-10T09:08:34;3.83;;;1.80;;
16727;SDS011;8482;54.396;18.590;2023-05-10T09:11:02;4.53;;;2.15;;
16727;SDS011;8482;54.396;18.590;2023-05-10T09:13:28;3.10;;;1.63;;
16727;SDS011;8482;54.396;18.590;2023-05-10T09:15:55;3.10;;;1.90;;
16727;SDS011;8482;54.396;18.590;2023-05-10T09:18:22;4.43;;;2.00;;
16727;SDS011;8482;54.396;18.590;2023-05-10T09:20:48;3.38;;;1.65;;
16727;SDS011;8482;54.396;18.590;2023-05-10T09:23:14;4.85;;;2.05;;
16727;SDS011;8482;54.396;18.590;2023-05-10T09:25:41;3.38;;;1.90;;
16727;SDS011;8482;54.396;18.590;2023-05-10T09:28:07;3.28;;;2.00;;
16727;SDS011;8482;54.396;18.590;2023-05-10T09:30:37;4.18;;;2.20;;
16727;SDS011;8482;54.396;18.590;2023-05-10T09:33:03;4.15;;;1.98;;
16727;SDS011;8482;54.396;18.590;2023-05-10T09:35:30;4.03;;;1.92;;
16727;SDS011;8482;54.396;18.590;2023-05-10T09:38:02;4.28;;;1.90;;
16727;SDS011;8482;54.396;18.590;2023-05-10T09:40:29;4.03;;;1.80;;
16727;SDS011;8482;54.396;18.590;2023-05-10T09:42:57;3.95;;;1.63;;
16727;SDS011;8482;54.396;18.590;2023-05-10T09:45:31;2.60;;;1.40;;
16727;SDS011;8482;54.396;18.590;2023-05-10T09:48:00;3.15;;;1.85;;
16727;SDS011;8482;54.396;18.590;2023-05-10T09:50:28;4.28;;;2.13;;
16727;SDS011;8482;54.396;18.590;2023-05-10T09:52:56;4.25;;;1.80;;
16727;SDS011;8482;54.396;18.590;2023-05-10T09:55:41;4.20;;;1.65;;
16727;SDS011;8482;54.396;18.590;2023-05-10T09:58:14;3.70;;;1.92;;
16727;SDS011;8482;54.396;18.590;2023-05-10T10:00:41;3.67;;;1.95;;
16727;SDS011;8482;54.396;18.590;2023-05-10T10:03:13;3.92;;;2.20;;
16727;SDS011;8482;54.396;18.590;2023-05-10T10:05:44;5.22;;;2.35;;
16727;SDS011;8482;54.396;18.590;2023-05-10T10:08:11;5.63;;;2.67;;
16727;SDS011;8482;54.396;18.590;2023-05-10T10:10:39;4.50;;;2.30;;
16727;SDS011;8482;54.396;18.590;2023-05-10T10:13:05;4.25;;;2.05;;
16727;SDS011;8482;54.396;18.590;2023-05-10T10:15:33;3.25;;;1.95;;
16727;SDS011;8482;54.396;18.590;2023-05-10T10:17:59;4.82;;;2.28;;
16727;SDS011;8482;54.396;18.590;2023-05-10T10:20:26;4.68;;;2.00;;
16727;SDS011;8482;54.396;18.590;2023-05-10T10:22:53;4.30;;;2.35;;
16727;SDS011;8482;54.396;18.590;2023-05-10T10:25:19;3.47;;;1.90;;
16727;SDS011;8482;54.396;18.590;2023-05-10T10:35:37;3.38;;;2.00;;
16727;SDS011;8482;54.396;18.590;2023-05-10T10:38:04;2.63;;;1.70;;
16727;SDS011;8482;54.396;18.590;2023-05-10T10:40:33;3.10;;;1.90;;
16727;SDS011;8482;54.396;18.590;2023-05-10T10:46:11;2.60;;;1.77;;
16727;SDS011;8482;54.396;18.590;2023-05-10T10:48:38;3.72;;;1.77;;
16727;SDS011;8482;54.396;18.590;2023-05-10T10:51:05;4.22;;;2.13;;
16727;SDS011;8482;54.396;18.590;2023-05-10T10:53:31;5.82;;;2.15;;
16727;SDS011;8482;54.396;18.590;2023-05-10T10:58:34;3.38;;;1.45;;
16727;SDS011;8482;54.396;18.590;2023-05-10T11:01:10;2.97;;;1.77;;
16727;SDS011;8482;54.396;18.590;2023-05-10T11:03:37;3.00;;;1.67;;
16727;SDS011;8482;54.396;18.590;2023-05-10T11:06:03;2.58;;;1.45;;
16727;SDS011;8482;54.396;18.590;2023-05-10T11:13:37;2.13;;;1.60;;
16727;SDS011;8482;54.396;18.590;2023-05-10T11:16:16;2.08;;;1.50;;
16727;SDS011;8482;54.396;18.590;2023-05-10T11:18:52;3.15;;;1.67;;
16727;SDS011;8482;54.396;18.590;2023-05-10T11:21:32;6.50;;;2.67;;
16727;SDS011;8482;54.396;18.590;2023-05-10T11:24:12;4.47;;;2.05;;
16727;SDS011;8482;54.396;18.590;2023-05-10T11:26:40;3.65;;;1.70;;
16727;SDS011;8482;54.396;18.590;2023-05-10T11:29:07;4.10;;;2.05;;
16727;SDS011;8482;54.396;18.590;2023-05-10T11:31:33;4.50;;;1.98;;
16727;SDS011;8482;54.396;18.590;2023-05-10T11:34:00;4.30;;;2.00;;
16727;SDS011;8482;54.396;18.590;2023-05-10T11:36:33;2.90;;;1.80;;
16727;SDS011;8482;54.396;18.590;2023-05-10T11:39:01;4.47;;;1.80;;
16727;SDS011;8482;54.396;18.590;2023-05-10T11:41:29;3.53;;;2.10;;
16727;SDS011;8482;54.396;18.590;2023-05-10T11:43:57;7.82;;;2.28;;
16727;SDS011;8482;54.396;18.590;2023-05-10T11:46:24;3.97;;;2.35;;
16727;SDS011;8482;54.396;18.590;2023-05-10T11:48:53;3.67;;;2.17;;
16727;SDS011;8482;54.396;18.590;2023-05-10T11:51:26;4.47;;;1.92;;
16727;SDS011;8482;54.396;18.590;2023-05-10T11:53:53;4.90;;;2.15;;
16727;SDS011;8482;54.396;18.590;2023-05-10T11:56:21;3.38;;;2.00;;
16727;SDS011;8482;54.396;18.590;2023-05-10T11:58:52;3.13;;;1.60;;
16727;SDS011;8482;54.396;18.590;2023-05-10T12:01:21;3.03;;;1.58;;
16727;SDS011;8482;54.396;18.590;2023-05-10T12:03:48;3.95;;;1.92;;
16727;SDS011;8482;54.396;18.590;2023-05-10T12:06:18;3.80;;;1.65;;
16727;SDS011;8482;54.396;18.590;2023-05-10T12:08:45;4.07;;;2.10;;
16727;SDS011;8482;54.396;18.590;2023-05-10T12:11:13;2.65;;;1.77;;
16727;SDS011;8482;54.396;18.590;2023-05-10T12:13:41;5.95;;;2.00;;
16727;SDS011;8482;54.396;18.590;2023-05-10T12:18:48;3.45;;;2.22;;
16727;SDS011;8482;54.396;18.590;2023-05-10T12:21:21;4.05;;;2.05;;
16727;SDS011;8482;54.396;18.590;2023-05-10T12:23:49;5.43;;;2.20;;
16727;SDS011;8482;54.396;18.590;2023-05-10T12:26:25;3.00;;;1.60;;
16727;SDS011;8482;54.396;18.590;2023-05-10T12:28:53;4.65;;;1.88;;
16727;SDS011;8482;54.396;18.590;2023-05-10T12:31:20;4.22;;;1.92;;
16727;SDS011;8482;54.396;18.590;2023-05-10T12:33:46;2.67;;;1.90;;
16727;SDS011;8482;54.396;18.590;2023-05-10T12:36:14;2.53;;;1.70;;
16727;SDS011;8482;54.396;18.590;2023-05-10T12:38:42;2.17;;;1.40;;
16727;SDS011;8482;54.396;18.590;2023-05-10T12:41:18;3.78;;;1.63;;
16727;SDS011;8482;54.396;18.590;2023-05-10T12:43:44;2.67;;;1.50;;
16727;SDS011;8482;54.396;18.590;2023-05-10T12:46:12;3.25;;;1.60;;
16727;SDS011;8482;54.396;18.590;2023-05-10T12:48:40;3.35;;;1.77;;
16727;SDS011;8482;54.396;18.590;2023-05-10T12:51:07;4.00;;;1.70;;
16727;SDS011;8482;54.396;18.590;2023-05-10T12:53:36;5.07;;;1.90;;
16727;SDS011;8482;54.396;18.590;2023-05-10T12:56:03;4.68;;;1.83;;
16727;SDS011;8482;54.396;18.590;2023-05-10T12:58:30;3.22;;;1.77;;
16727;SDS011;8482;54.396;18.590;2023-05-10T13:00:57;3.88;;;2.10;;
16727;SDS011;8482;54.396;18.590;2023-05-10T13:03:25;4.72;;;1.77;;
16727;SDS011;8482;54.396;18.590;2023-05-10T13:05:51;3.13;;;1.60;;
16727;SDS011;8482;54.396;18.590;2023-05-10T13:08:17;2.60;;;1.58;;
16727;SDS011;8482;54.396;18.590;2023-05-10T13:10:43;4.03;;;2.00;;
16727;SDS011;8482;54.396;18.590;2023-05-10T13:13:09;7.72;;;2.15;;
16727;SDS011;8482;54.396;18.590;2023-05-10T13:15:35;6.80;;;2.25;;
16727;SDS011;8482;54.396;18.590;2023-05-10T13:18:02;5.28;;;2.83;;
16727;SDS011;8482;54.396;18.590;2023-05-10T13:20:28;4.85;;;1.95;;
16727;SDS011;8482;54.396;18.590;2023-05-10T13:22:54;5.05;;;2.30;;
16727;SDS011;8482;54.396;18.590;2023-05-10T13:25:20;5.40;;;2.05;;
16727;SDS011;8482;54.396;18.590;2023-05-10T13:27:46;4.32;;;1.60;;
16727;SDS011;8482;54.396;18.590;2023-05-10T13:30:12;2.63;;;1.55;;
16727;SDS011;8482;54.396;18.590;2023-05-10T13:32:38;3.72;;;2.30;;
16727;SDS011;8482;54.396;18.590;2023-05-10T13:35:06;5.57;;;2.50;;
16727;SDS011;8482;54.396;18.590;2023-05-10T13:37:33;6.30;;;2.05;;
16727;SDS011;8482;54.396;18.590;2023-05-10T13:40:02;5.10;;;2.15;;
16727;SDS011;8482;54.396;18.590;2023-05-10T13:42:29;4.60;;;2.10;;
16727;SDS011;8482;54.396;18.590;2023-05-10T13:44:56;12.18;;;3.67;;
16727;SDS011;8482;54.396;18.590;2023-05-10T13:47:22;6.45;;;2.00;;
16727;SDS011;8482;54.396;18.590;2023-05-10T13:49:48;7.60;;;2.75;;
16727;SDS011;8482;54.396;18.590;2023-05-10T13:52:14;7.03;;;2.08;;
16727;SDS011;8482;54.396;18.590;2023-05-10T13:54:40;3.53;;;2.13;;
16727;SDS011;8482;54.396;18.590;2023-05-10T13:57:06;4.43;;;2.35;;
16727;SDS011;8482;54.396;18.590;2023-05-10T13:59:32;4.70;;;2.30;;
16727;SDS011;8482;54.396;18.590;2023-05-10T14:01:58;5.50;;;1.88;;
16727;SDS011;8482;54.396;18.590;2023-05-10T14:04:27;3.92;;;2.13;;
16727;SDS011;8482;54.396;18.590;2023-05-10T14:06:55;7.72;;;2.65;;
16727;SDS011;8482;54.396;18.590;2023-05-10T14:09:22;4.05;;;2.00;;
16727;SDS011;8482;54.396;18.590;2023-05-10T14:11:48;5.00;;;2.40;;
16727;SDS011;8482;54.396;18.590;2023-05-10T14:14:14;6.50;;;2.40;;
16727;SDS011;8482;54.396;18.590;2023-05-10T14:16:43;5.70;;;2.85;;
16727;SDS011;8482;54.396;18.590;2023-05-10T14:19:10;4.47;;;2.00;;
16727;SDS011;8482;54.396;18.590;2023-05-10T14:21:36;3.78;;;2.30;;
16727;SDS011;8482;54.396;18.590;2023-05-10T14:24:03;4.85;;;2.50;;
16727;SDS011;8482;54.396;18.590;2023-05-10T14:26:29;4.60;;;2.20;;
16727;SDS011;8482;54.396;18.590;2023-05-10T14:28:56;7.38;;;2.10;;
16727;SDS011;8482;54.396;18.590;2023-05-10T14:31:22;3.45;;;1.83;;
16727;SDS011;8482;54.396;18.590;2023-05-10T14:33:50;3.67;;;2.13;;
16727;SDS011;8482;54.396;18.590;2023-05-10T14:36:16;5.68;;;2.05;;
16727;SDS011;8482;54.396;18.590;2023-05-10T14:38:43;4.28;;;2.08;;
16727;SDS011;8482;54.396;18.590;2023-05-10T14:41:09;4.60;;;1.90;;
16727;SDS011;8482;54.396;18.590;2023-05-10T14:43:39;7.07;;;2.35;;
16727;SDS011;8482;54.396;18.590;2023-05-10T14:46:06;5.65;;;1.98;;
16727;SDS011;8482;54.396;18.590;2023-05-10T14:48:32;4.07;;;1.90;;
16727;SDS011;8482;54.396;18.590;2023-05-10T14:50:58;3.38;;;1.63;;
16727;SDS011;8482;54.396;18.590;2023-05-10T14:53:23;3.72;;;1.80;;
16727;SDS011;8482;54.396;18.590;2023-05-10T14:55:50;4.55;;;2.03;;
16727;SDS011;8482;54.396;18.590;2023-05-10T14:58:16;5.00;;;2.30;;
16727;SDS011;8482;54.396;18.590;2023-05-10T15:00:42;3.72;;;2.10;;
16727;SDS011;8482;54.396;18.590;2023-05-10T15:03:08;4.25;;;2.15;;
16727;SDS011;8482;54.396;18.590;2023-05-10T15:05:34;6.30;;;1.88;;
16727;SDS011;8482;54.396;18.590;2023-05-10T15:08:02;6.40;;;2.30;;
16727;SDS011;8482;54.396;18.590;2023-05-10T15:10:29;2.53;;;1.80;;
16727;SDS011;8482;54.396;18.590;2023-05-10T15:12:55;3.00;;;1.65;;
16727;SDS011;8482;54.396;18.590;2023-05-10T15:15:21;3.95;;;1.98;;
16727;SDS011;8482;54.396;18.590;2023-05-10T15:17:47;4.85;;;1.95;;
16727;SDS011;8482;54.396;18.590;2023-05-10T15:20:15;3.90;;;2.00;;
16727;SDS011;8482;54.396;18.590;2023-05-10T15:22:41;3.22;;;1.75;;
16727;SDS011;8482;54.396;18.590;2023-05-10T15:25:09;4.82;;;2.03;;
16727;SDS011;8482;54.396;18.590;2023-05-10T15:27:35;4.88;;;2.15;;
16727;SDS011;8482;54.396;18.590;2023-05-10T15:30:01;4.03;;;2.03;;
16727;SDS011;8482;54.396;18.590;2023-05-10T15:32:27;3.30;;;1.60;;
16727;SDS011;8482;54.396;18.590;2023-05-10T15:34:56;4.40;;;1.63;;